createdAt,value
2023-05-18T00:01:49.420Z,97800.53
2023-05-18T00:03:55.061Z,97800.47
2023-05-18T00:06:04.195Z,97792.75
2023-05-18T00:08:07.983Z,97793.63
2023-05-18T00:10:13.235Z,97790.25
2023-05-18T00:12:15.933Z,97789.44
2023-05-18T00:14:18.805Z,97789.53
2023-05-18T00:16:21.731Z,97793.81
2023-05-18T00:18:26.532Z,97789.50
2023-05-18T00:20:29.633Z,97790.44
2023-05-18T00:22:35.097Z,97775.75
2023-05-18T00:24:37.682Z,97780.94
2023-05-18T00:26:42.557Z,97782.63
2023-05-18T00:28:45.172Z,97783.50
2023-05-18T00:30:47.900Z,97783.47
2023-05-18T00:32:50.741Z,97781.84
2023-05-18T00:34:53.456Z,97781.94
2023-05-18T00:36:56.082Z,97780.19
2023-05-18T00:38:58.682Z,97782.69
2023-05-18T00:41:01.334Z,97781.09
2023-05-18T00:43:05.772Z,97780.31
2023-05-18T00:45:09.515Z,97776.94
2023-05-18T00:47:12.113Z,97772.59
2023-05-18T00:49:15.152Z,97765.84
2023-05-18T00:51:18.209Z,97769.41
2023-05-18T00:53:20.949Z,97770.22
2023-05-18T00:55:23.806Z,97771.25
2023-05-18T00:57:26.833Z,97766.13
2023-05-18T00:59:32.764Z,97766.16
2023-05-18T01:01:36.202Z,97764.47
2023-05-18T01:03:39.514Z,97765.28
2023-05-18T01:05:42.361Z,97767.06
2023-05-18T01:07:45.126Z,97762.75
2023-05-18T01:09:47.792Z,97760.13
2023-05-18T01:11:58.276Z,97765.34
2023-05-18T01:14:09.481Z,97762.75
2023-05-18T01:16:19.523Z,97765.34
2023-05-18T01:18:29.086Z,97767.06
2023-05-18T01:20:37.866Z,97767.94
2023-05-18T01:22:51.742Z,97767.06
2023-05-18T01:25:03.061Z,97766.19
2023-05-18T01:27:09.029Z,97765.41
2023-05-18T01:29:14.886Z,97761.06
2023-05-18T01:31:17.774Z,97764.59
2023-05-18T01:33:20.790Z,97765.47
2023-05-18T01:35:23.525Z,97760.28
2023-05-18T01:37:26.151Z,97765.53
2023-05-18T01:39:28.802Z,97766.53
2023-05-18T01:41:36.378Z,97771.81
2023-05-18T01:43:53.903Z,97773.53
2023-05-18T01:46:02.909Z,97764.94
2023-05-18T01:48:08.372Z,97764.97
2023-05-18T01:50:14.886Z,97768.66
2023-05-18T01:52:20.392Z,97766.09
2023-05-18T01:54:25.871Z,97758.53
2023-05-18T01:56:29.017Z,97765.53
2023-05-18T01:58:31.830Z,97763.88
2023-05-18T02:00:36.573Z,97767.28
2023-05-18T02:02:39.306Z,97757.81
2023-05-18T02:04:41.973Z,97758.72
2023-05-18T02:06:44.600Z,97752.69
2023-05-18T02:08:47.219Z,97758.72
2023-05-18T02:10:49.860Z,97754.34
2023-05-18T02:12:53.917Z,97761.28
2023-05-18T02:14:58.333Z,97755.16
2023-05-18T02:17:02.287Z,97763.84
2023-05-18T02:19:04.927Z,97752.63
2023-05-18T02:21:09.410Z,97745.72
2023-05-18T02:23:11.998Z,97744.06
2023-05-18T02:25:14.637Z,97742.34
2023-05-18T02:27:17.253Z,97744.97
2023-05-18T02:29:19.874Z,97738.94
2023-05-18T02:31:22.519Z,97744.13
2023-05-18T02:33:26.658Z,97746.75
2023-05-18T02:35:29.804Z,97745.94
2023-05-18T02:37:34.376Z,97749.41
2023-05-18T02:39:36.947Z,97738.16
2023-05-18T02:41:39.631Z,97735.53
2023-05-18T02:43:42.231Z,97732.09
2023-05-18T02:45:44.866Z,97726.78
2023-05-18T02:47:47.997Z,97722.53
2023-05-18T02:49:52.609Z,97730.38
2023-05-18T02:51:55.234Z,97733.88
2023-05-18T02:53:57.950Z,97733.00
2023-05-18T02:56:03.511Z,97736.50
2023-05-18T02:58:06.208Z,97733.00
2023-05-18T03:00:11.608Z,97724.41
2023-05-18T03:02:16.514Z,97724.53
2023-05-18T03:04:19.964Z,97725.44
2023-05-18T03:06:26.719Z,97725.53
2023-05-18T03:08:31.473Z,97729.91
2023-05-18T03:10:34.078Z,97724.78
2023-05-18T03:12:36.686Z,97723.94
2023-05-18T03:14:39.306Z,97717.03
2023-05-18T03:16:41.922Z,97712.72
2023-05-18T03:18:44.556Z,97714.41
2023-05-18T03:20:47.258Z,97713.56
2023-05-18T03:22:51.188Z,97711.97
2023-05-18T03:24:55.462Z,97719.03
2023-05-18T03:26:58.170Z,97711.22
2023-05-18T03:29:01.210Z,97716.44
2023-05-18T03:31:03.958Z,97714.69
2023-05-18T03:33:06.636Z,97723.38
2023-05-18T03:35:12.336Z,97722.53
2023-05-18T03:37:15.936Z,97713.88
2023-05-18T03:39:19.910Z,97716.47
2023-05-18T03:41:22.976Z,97720.81
2023-05-18T03:43:26.144Z,97720.81
2023-05-18T03:45:29.044Z,97719.13
2023-05-18T03:47:32.262Z,97722.63
2023-05-18T03:49:35.841Z,97722.63
2023-05-18T03:51:38.424Z,97719.19
2023-05-18T03:53:42.194Z,97725.25
2023-05-18T03:55:46.243Z,97729.56
2023-05-18T03:57:48.960Z,97729.63
2023-05-18T03:59:51.762Z,97727.94
2023-05-18T04:01:54.764Z,97724.50
2023-05-18T04:03:57.926Z,97729.72
2023-05-18T04:06:00.625Z,97728.84
2023-05-18T04:08:03.232Z,97730.59
2023-05-18T04:10:07.404Z,97734.06
2023-05-18T04:12:11.565Z,97731.47
2023-05-18T04:14:15.125Z,97733.16
2023-05-18T04:16:18.211Z,97734.88
2023-05-18T04:18:21.018Z,97739.25
2023-05-18T04:20:23.589Z,97745.28
2023-05-18T04:22:29.781Z,97740.13
2023-05-18T04:24:32.777Z,97747.03
2023-05-18T04:26:38.456Z,97747.94
2023-05-18T04:28:43.196Z,97750.47
2023-05-18T04:30:46.099Z,97757.41
2023-05-18T04:32:49.110Z,97758.22
2023-05-18T04:34:51.742Z,97758.22
2023-05-18T04:36:55.892Z,97762.56
2023-05-18T04:38:59.521Z,97751.34
2023-05-18T04:41:05.334Z,97759.13
2023-05-18T04:43:08.376Z,97753.88
2023-05-18T04:45:16.441Z,97765.97
2023-05-18T04:47:19.033Z,97766.75
2023-05-18T04:49:22.956Z,97763.22
2023-05-18T04:51:25.845Z,97764.03
2023-05-18T04:53:28.443Z,97757.94
2023-05-18T04:55:31.431Z,97758.78
2023-05-18T04:57:34.227Z,97760.47
2023-05-18T04:59:37.281Z,97756.09
2023-05-18T05:01:41.324Z,97766.41
2023-05-18T05:03:44.735Z,97768.97
2023-05-18T05:05:47.399Z,97762.88
2023-05-18T05:07:50.614Z,97763.69
2023-05-18T05:09:53.226Z,97753.25
2023-05-18T05:11:56.463Z,97754.91
2023-05-18T05:13:59.202Z,97754.84
2023-05-18T05:16:01.938Z,97754.81
2023-05-18T05:18:06.197Z,97756.47
2023-05-18T05:20:09.934Z,97759.91
2023-05-18T05:22:12.578Z,97761.53
2023-05-18T05:24:17.504Z,97761.50
2023-05-18T05:26:21.382Z,97766.66
2023-05-18T05:28:23.974Z,97758.84
2023-05-18T05:30:26.600Z,97762.28
2023-05-18T05:32:29.234Z,97763.94
2023-05-18T05:34:33.230Z,97764.75
2023-05-18T05:36:35.825Z,97762.97
2023-05-18T05:38:38.441Z,97765.53
2023-05-18T05:40:41.283Z,97766.38
2023-05-18T05:42:44.307Z,97758.50
2023-05-18T05:44:50.000Z,97768.00
2023-05-18T05:46:52.613Z,97774.03
2023-05-18T05:48:55.966Z,97772.22
2023-05-18T05:50:59.898Z,97773.09
2023-05-18T05:53:02.597Z,97769.66
2023-05-18T05:55:06.153Z,97779.16
2023-05-18T05:57:08.779Z,97769.59
2023-05-18T05:59:11.624Z,97773.03
2023-05-18T06:01:14.229Z,97769.50
2023-05-18T06:03:16.861Z,97771.19
2023-05-18T06:05:19.474Z,97772.84
2023-05-18T06:07:23.414Z,97771.03
2023-05-18T06:09:26.347Z,97768.34
2023-05-18T06:11:28.970Z,97770.91
2023-05-18T06:13:32.016Z,97767.38
2023-05-18T06:15:34.681Z,97770.78
2023-05-18T06:17:38.588Z,97767.31
2023-05-18T06:19:41.238Z,97761.19
2023-05-18T06:21:43.974Z,97764.63
2023-05-18T06:23:47.959Z,97769.75
2023-05-18T06:25:50.678Z,97759.28
2023-05-18T06:27:53.284Z,97758.38
2023-05-18T06:29:55.927Z,97764.38
2023-05-18T06:31:58.769Z,97757.44
2023-05-18T06:34:01.794Z,97766.03
2023-05-18T06:36:04.914Z,97769.44
2023-05-18T06:38:07.631Z,97763.31
2023-05-18T06:40:12.018Z,97767.59
2023-05-18T06:42:14.639Z,97766.63
2023-05-18T06:44:17.209Z,97764.81
2023-05-18T06:46:21.071Z,97767.38
2023-05-18T06:48:27.275Z,97769.03
2023-05-18T06:50:29.913Z,97761.19
2023-05-18T06:52:32.612Z,97767.19
2023-05-18T06:54:35.224Z,97766.25
2023-05-18T06:56:39.165Z,97775.66
2023-05-18T06:58:42.951Z,97769.59
2023-05-18T07:00:45.606Z,97764.53
2023-05-18T07:02:48.317Z,97768.72
2023-05-18T07:04:51.178Z,97766.91
2023-05-18T07:06:55.762Z,97767.66
2023-05-18T07:08:58.423Z,97772.72
2023-05-18T07:11:02.461Z,97764.84
2023-05-18T07:13:06.509Z,97763.84
2023-05-18T07:15:11.435Z,97773.31
2023-05-18T07:17:14.029Z,97767.19
2023-05-18T07:19:16.602Z,97770.53
2023-05-18T07:21:19.209Z,97766.09
2023-05-18T07:23:22.402Z,97769.47
2023-05-18T07:25:26.168Z,97765.88
2023-05-18T07:27:28.993Z,97769.28
2023-05-18T07:29:33.525Z,97765.72
2023-05-18T07:31:39.039Z,97770.81
2023-05-18T07:33:41.841Z,97764.69
2023-05-18T07:35:44.454Z,97760.28
2023-05-18T07:37:51.793Z,97766.25
2023-05-18T07:39:54.420Z,97756.63
2023-05-18T07:41:57.092Z,97759.94
2023-05-18T07:44:02.533Z,97751.13
2023-05-18T07:46:06.550Z,97750.22
2023-05-18T07:48:09.220Z,97751.88
2023-05-18T07:50:12.337Z,97750.03
2023-05-18T07:52:15.070Z,97743.91
2023-05-18T07:54:17.788Z,97746.38
2023-05-18T07:56:20.408Z,97740.25
2023-05-18T07:58:22.993Z,97738.41
2023-05-18T08:00:25.756Z,97737.38
2023-05-18T08:02:31.339Z,97737.28
2023-05-18T08:04:35.556Z,97738.88
2023-05-18T08:06:38.197Z,97730.13
2023-05-18T08:08:40.944Z,97738.78
2023-05-18T08:10:43.633Z,97734.22
2023-05-18T08:12:46.348Z,97735.00
2023-05-18T08:14:48.931Z,97730.56
2023-05-18T08:16:51.557Z,97732.19
2023-05-18T08:18:55.610Z,97725.06
2023-05-18T08:20:58.266Z,97737.97
2023-05-18T08:23:00.821Z,97729.19
2023-05-18T08:25:04.097Z,97722.97
2023-05-18T08:27:08.431Z,97729.84
2023-05-18T08:29:11.052Z,97721.94
2023-05-18T08:31:13.689Z,97727.91
2023-05-18T08:33:19.461Z,97726.91
2023-05-18T08:35:23.644Z,97720.75
2023-05-18T08:37:29.416Z,97721.50
2023-05-18T08:39:32.625Z,97716.22
2023-05-18T08:41:40.324Z,97716.09
2023-05-18T08:43:46.943Z,97713.41
2023-05-18T08:45:53.781Z,97714.22
2023-05-18T08:47:58.349Z,97713.25
2023-05-18T08:50:03.376Z,97714.84
2023-05-18T08:52:09.550Z,97712.94
2023-05-18T08:54:16.629Z,97711.09
2023-05-18T08:56:20.223Z,97718.00
2023-05-18T08:58:28.434Z,97714.41
2023-05-18T09:00:31.711Z,97709.06
2023-05-18T09:02:35.129Z,97712.50
2023-05-18T09:04:39.241Z,97711.66
2023-05-18T09:06:42.753Z,97714.13
2023-05-18T09:08:47.433Z,97704.44
2023-05-18T09:10:51.460Z,97713.00
2023-05-18T09:12:56.791Z,97701.56
2023-05-18T09:15:01.793Z,97708.38
2023-05-18T09:17:04.604Z,97710.03
2023-05-18T09:19:07.302Z,97707.25
2023-05-18T09:21:10.176Z,97697.56
2023-05-18T09:23:13.168Z,97708.75
2023-05-18T09:25:18.755Z,97699.81
2023-05-18T09:27:22.397Z,97707.47
2023-05-18T09:29:25.089Z,97704.59
2023-05-18T09:31:28.006Z,97711.31
2023-05-18T09:33:35.312Z,97711.00
2023-05-18T09:35:38.035Z,97705.66
2023-05-18T09:37:43.176Z,97706.09
2023-05-18T09:39:59.979Z,97695.22
2023-05-18T09:42:05.638Z,97703.72
2023-05-18T09:44:10.017Z,97697.38
2023-05-18T09:46:14.154Z,97696.31
2023-05-18T09:48:17.615Z,97697.84
2023-05-18T09:50:20.852Z,97701.25
2023-05-18T09:52:23.536Z,97694.81
2023-05-18T09:54:26.204Z,97693.56
2023-05-18T09:56:28.962Z,97691.72
2023-05-18T09:58:34.764Z,97699.50
2023-05-18T10:00:43.613Z,97689.06
2023-05-18T10:02:48.935Z,97683.63
2023-05-18T10:04:52.026Z,97692.22
2023-05-18T10:06:54.735Z,97691.25
2023-05-18T10:08:59.012Z,97678.97
2023-05-18T10:11:02.091Z,97674.69
2023-05-18T10:13:05.628Z,97674.56
2023-05-18T10:15:15.510Z,97680.53
2023-05-18T10:17:18.359Z,97675.19
2023-05-18T10:19:21.706Z,97679.44
2023-05-18T10:21:28.959Z,97678.41
2023-05-18T10:23:33.486Z,97674.78
2023-05-18T10:25:38.009Z,97669.47
2023-05-18T10:27:42.513Z,97670.34
2023-05-18T10:29:46.460Z,97668.41
2023-05-18T10:31:52.817Z,97667.50
2023-05-18T10:33:56.898Z,97671.75
2023-05-18T10:35:59.551Z,97674.94
2023-05-18T10:38:03.658Z,97666.25
2023-05-18T10:40:08.921Z,97673.13
2023-05-18T10:42:12.971Z,97668.63
2023-05-18T10:44:16.762Z,97666.78
2023-05-18T10:46:21.459Z,97660.16
2023-05-18T10:48:26.633Z,97658.41
2023-05-18T10:50:31.704Z,97663.28
2023-05-18T10:52:34.878Z,97648.19
2023-05-18T10:54:37.952Z,97659.41
2023-05-18T10:56:44.574Z,97654.03
2023-05-18T10:58:48.152Z,97654.31
2023-05-18T11:00:53.164Z,97658.69
2023-05-18T11:02:56.292Z,97660.41
2023-05-18T11:05:00.841Z,97653.94
2023-05-18T11:07:03.697Z,97639.94
2023-05-18T11:09:07.088Z,97649.50
2023-05-18T11:11:09.708Z,97644.97
2023-05-18T11:13:12.461Z,97631.78
2023-05-18T11:15:15.054Z,97643.00
2023-05-18T11:17:22.225Z,97648.16
2023-05-18T11:19:26.225Z,97655.97
2023-05-18T11:21:53.129Z,97654.75
2023-05-18T11:24:14.922Z,97653.78
2023-05-18T11:26:17.608Z,97654.56
2023-05-18T11:28:23.337Z,97647.13
2023-05-18T11:30:29.708Z,97648.13
2023-05-18T11:32:34.110Z,97641.03
2023-05-18T11:34:45.792Z,97643.72
2023-05-18T11:36:56.281Z,97640.25
2023-05-18T11:39:06.774Z,97642.66
2023-05-18T11:41:10.948Z,97645.28
2023-05-18T11:43:21.537Z,97637.34
2023-05-18T11:45:24.308Z,97638.13
2023-05-18T11:47:32.032Z,97640.59
2023-05-18T11:49:38.722Z,97631.66
2023-05-18T11:51:58.798Z,97634.78
2023-05-18T11:54:01.915Z,97633.63
2023-05-18T11:56:06.522Z,97636.91
2023-05-18T11:58:10.378Z,97637.59
2023-05-18T12:00:15.054Z,97641.88
2023-05-18T12:02:22.293Z,97641.00
2023-05-18T12:04:25.801Z,97636.75
2023-05-18T12:06:29.231Z,97627.88
2023-05-18T12:08:32.111Z,97638.94
2023-05-18T12:10:36.687Z,97629.13
2023-05-18T12:12:40.938Z,97626.44
2023-05-18T12:14:45.141Z,97625.59
2023-05-18T12:16:48.746Z,97629.91
2023-05-18T12:18:51.864Z,97634.31
2023-05-18T12:20:54.548Z,97630.16
2023-05-18T12:23:01.149Z,97625.09
2023-05-18T12:25:03.960Z,97629.53
2023-05-18T12:27:08.558Z,97630.19
2023-05-18T12:29:15.008Z,97620.66
2023-05-18T12:31:17.740Z,97625.97
2023-05-18T12:33:22.080Z,97626.13
2023-05-18T12:35:25.373Z,97616.25
2023-05-18T12:37:34.248Z,97614.47
2023-05-18T12:39:52.491Z,97621.50
2023-05-18T12:41:55.150Z,97621.44
2023-05-18T12:43:58.418Z,97622.06
2023-05-18T12:46:03.193Z,97614.50
2023-05-18T12:48:06.406Z,97615.13
2023-05-18T12:50:09.905Z,97625.28
2023-05-18T12:52:14.130Z,97617.09
2023-05-18T12:54:16.838Z,97618.25
2023-05-18T12:56:20.932Z,97617.28
2023-05-18T12:58:23.557Z,97616.41
2023-05-18T13:00:26.177Z,97620.81
2023-05-18T13:02:32.411Z,97618.41
2023-05-18T13:04:36.087Z,97616.09
2023-05-18T13:06:39.178Z,97625.50
2023-05-18T13:08:42.222Z,97622.91
2023-05-18T13:10:45.540Z,97622.97
2023-05-18T13:12:50.020Z,97614.06
2023-05-18T13:14:54.262Z,97611.31
2023-05-18T13:16:57.663Z,97612.06
2023-05-18T13:19:06.620Z,97609.44
2023-05-18T13:21:09.262Z,97605.81
2023-05-18T13:23:14.078Z,97615.63
2023-05-18T13:25:16.682Z,97607.75
2023-05-18T13:27:19.277Z,97613.94
2023-05-18T13:29:21.880Z,97603.72
2023-05-18T13:31:25.057Z,97616.09
2023-05-18T13:33:27.807Z,97615.38
2023-05-18T13:35:32.074Z,97602.19
2023-05-18T13:37:35.060Z,97610.22
2023-05-18T13:39:37.682Z,97608.53
2023-05-18T13:41:40.295Z,97606.06
2023-05-18T13:43:43.232Z,97606.19
2023-05-18T13:45:45.939Z,97601.41
2023-05-18T13:47:50.757Z,97604.81
2023-05-18T13:49:53.416Z,97596.84
2023-05-18T13:51:59.283Z,97590.81
2023-05-18T13:54:02.307Z,97601.50
2023-05-18T13:56:05.407Z,97603.44
2023-05-18T13:58:08.016Z,97598.41
2023-05-18T14:00:13.214Z,97599.41
2023-05-18T14:02:16.114Z,97598.72
2023-05-18T14:04:18.734Z,97591.06
2023-05-18T14:06:23.208Z,97587.59
2023-05-18T14:08:27.164Z,97588.59
2023-05-18T14:10:29.932Z,97579.13
2023-05-18T14:12:33.228Z,97580.09
2023-05-18T14:14:36.015Z,97582.72
2023-05-18T14:16:38.761Z,97579.34
2023-05-18T14:18:41.377Z,97587.38
2023-05-18T14:20:44.053Z,97584.13
2023-05-18T14:22:46.878Z,97584.91
2023-05-18T14:24:50.824Z,97578.78
2023-05-18T14:26:53.651Z,97574.47
2023-05-18T14:28:56.375Z,97577.19
2023-05-18T14:30:59.399Z,97577.09
2023-05-18T14:33:02.262Z,97574.25
2023-05-18T14:35:06.912Z,97576.41
2023-05-18T14:37:09.837Z,97575.38
2023-05-18T14:39:12.491Z,97576.16
2023-05-18T14:41:16.547Z,97589.38
2023-05-18T14:43:19.109Z,97584.28
2023-05-18T14:45:21.717Z,97586.28
2023-05-18T14:47:24.296Z,97576.09
2023-05-18T14:49:26.914Z,97579.66
2023-05-18T14:51:29.551Z,97580.66
2023-05-18T14:53:32.162Z,97582.47
2023-05-18T14:55:34.818Z,97593.13
2023-05-18T14:57:38.806Z,97587.94
2023-05-18T14:59:43.101Z,97589.03
2023-05-18T15:01:45.774Z,97595.38
2023-05-18T15:03:51.474Z,97590.13
2023-05-18T15:05:54.202Z,97588.31
2023-05-18T15:07:56.857Z,97591.81
2023-05-18T15:09:59.442Z,97585.06
2023-05-18T15:12:02.042Z,97590.13
2023-05-18T15:14:06.042Z,97583.94
2023-05-18T15:16:08.710Z,97583.03
2023-05-18T15:18:11.782Z,97586.63
2023-05-18T15:20:14.757Z,97584.78
2023-05-18T15:22:17.340Z,97585.66
2023-05-18T15:24:19.924Z,97578.69
2023-05-18T15:26:22.599Z,97588.28
2023-05-18T15:28:25.398Z,97591.72
2023-05-18T15:30:30.097Z,97585.66
2023-05-18T15:32:32.855Z,97593.56
2023-05-18T15:34:35.569Z,97588.47
2023-05-18T15:36:38.263Z,97585.06
2023-05-18T15:38:41.055Z,97593.97
2023-05-18T15:40:46.762Z,97598.44
2023-05-18T15:42:50.433Z,97593.25
2023-05-18T15:44:53.078Z,97590.72
2023-05-18T15:46:57.110Z,97599.56
2023-05-18T15:48:59.744Z,97600.50
2023-05-18T15:51:02.354Z,97596.16
2023-05-18T15:53:04.949Z,97595.34
2023-05-18T15:55:08.467Z,97595.34
2023-05-18T15:57:11.073Z,97601.50
2023-05-18T15:59:13.649Z,97594.56
2023-05-18T16:01:16.308Z,97585.91
2023-05-18T16:03:20.390Z,97592.84
2023-05-18T16:05:22.997Z,97591.16
2023-05-18T16:07:25.582Z,97592.09
2023-05-18T16:09:28.148Z,97590.38
2023-05-18T16:11:30.824Z,97590.38
2023-05-18T16:13:33.516Z,97593.06
2023-05-18T16:15:36.458Z,97588.69
2023-05-18T16:17:39.141Z,97590.44
2023-05-18T16:19:43.094Z,97593.38
2023-05-18T16:21:45.690Z,97591.44
2023-05-18T16:23:48.437Z,97586.28
2023-05-18T16:25:51.071Z,97587.13
2023-05-18T16:27:53.644Z,97591.50
2023-05-18T16:29:56.232Z,97590.69
2023-05-18T16:31:58.843Z,97590.69
2023-05-18T16:34:01.458Z,97591.50
2023-05-18T16:36:06.293Z,97591.59
2023-05-18T16:38:08.941Z,97585.44
2023-05-18T16:40:12.047Z,97588.91
2023-05-18T16:42:14.659Z,97588.06
2023-05-18T16:44:17.270Z,97591.44
2023-05-18T16:46:20.453Z,97592.38
2023-05-18T16:48:23.167Z,97588.78
2023-05-18T16:50:27.723Z,97594.00
2023-05-18T16:52:31.665Z,97599.19
2023-05-18T16:54:34.234Z,97600.88
2023-05-18T16:56:36.805Z,97596.47
2023-05-18T16:58:39.971Z,97594.63
2023-05-18T17:00:42.600Z,97592.84
2023-05-18T17:02:45.897Z,97597.25
2023-05-18T17:04:50.386Z,97598.09
2023-05-18T17:06:53.000Z,97600.72
2023-05-18T17:08:58.529Z,97598.94
2023-05-18T17:11:01.344Z,97598.09
2023-05-18T17:13:04.094Z,97600.72
2023-05-18T17:15:07.640Z,97599.88
2023-05-18T17:17:10.401Z,97608.97
2023-05-18T17:19:13.565Z,97604.44
2023-05-18T17:21:16.275Z,97605.25
2023-05-18T17:23:18.871Z,97600.94
2023-05-18T17:25:22.825Z,97601.72
2023-05-18T17:27:25.559Z,97607.84
2023-05-18T17:29:28.220Z,97607.84
2023-05-18T17:31:30.864Z,97599.97
2023-05-18T17:33:33.512Z,97606.97
2023-05-18T17:35:36.140Z,97604.44
2023-05-18T17:37:38.763Z,97607.06
2023-05-18T17:39:41.321Z,97600.09
2023-05-18T17:41:45.386Z,97607.06
2023-05-18T17:43:48.936Z,97604.56
2023-05-18T17:45:51.657Z,97603.66
2023-05-18T17:47:54.519Z,97607.13
2023-05-18T17:49:57.104Z,97611.53
2023-05-18T17:51:59.756Z,97611.53
2023-05-18T17:54:02.400Z,97605.41
2023-05-18T17:56:05.447Z,97601.94
2023-05-18T17:58:09.396Z,97601.09
2023-05-18T18:00:13.383Z,97603.81
2023-05-18T18:02:16.093Z,97600.25
2023-05-18T18:04:18.858Z,97607.25
2023-05-18T18:06:22.630Z,97607.41
2023-05-18T18:08:25.655Z,97606.56
2023-05-18T18:10:28.387Z,97605.72
2023-05-18T18:12:31.249Z,97611.88
2023-05-18T18:14:35.277Z,97620.59
2023-05-18T18:16:37.948Z,97616.22
2023-05-18T18:18:40.982Z,97617.97
2023-05-18T18:20:44.144Z,97616.28
2023-05-18T18:22:47.715Z,97619.81
2023-05-18T18:24:50.288Z,97608.47
2023-05-18T18:26:53.555Z,97607.56
2023-05-18T18:28:56.143Z,97613.72
2023-05-18T18:31:00.573Z,97612.88
2023-05-18T18:33:03.986Z,97613.78
2023-05-18T18:35:07.213Z,97617.34
2023-05-18T18:37:09.837Z,97618.25
2023-05-18T18:39:13.326Z,97620.06
2023-05-18T18:41:17.295Z,97620.06
2023-05-18T18:43:19.915Z,97618.31
2023-05-18T18:45:22.513Z,97625.38
2023-05-18T18:47:26.563Z,97626.28
2023-05-18T18:49:29.190Z,97628.91
2023-05-18T18:51:32.462Z,97628.13
2023-05-18T18:53:35.062Z,97626.44
2023-05-18T18:55:37.653Z,97633.44
2023-05-18T18:57:40.554Z,97631.75
2023-05-18T18:59:43.126Z,97635.28
2023-05-18T19:01:46.419Z,97640.50
2023-05-18T19:03:52.636Z,97637.06
2023-05-18T19:05:55.318Z,97642.44
2023-05-18T19:08:01.767Z,97644.16
2023-05-18T19:10:05.388Z,97642.38
2023-05-18T19:12:09.201Z,97646.78
2023-05-18T19:14:11.869Z,97643.44
2023-05-18T19:16:17.382Z,97640.75
2023-05-18T19:18:20.456Z,97645.97
2023-05-18T19:20:24.636Z,97645.13
2023-05-18T19:22:27.226Z,97656.78
2023-05-18T19:24:29.990Z,97647.91
2023-05-18T19:26:32.822Z,97654.00
2023-05-18T19:28:35.487Z,97660.94
2023-05-18T19:30:38.068Z,97657.47
2023-05-18T19:32:41.098Z,97667.13
2023-05-18T19:34:43.708Z,97667.97
2023-05-18T19:36:47.658Z,97669.72
2023-05-18T19:38:52.391Z,97665.41
2023-05-18T19:40:55.047Z,97670.63
2023-05-18T19:42:59.657Z,97671.50
2023-05-18T19:45:02.350Z,97678.50
2023-05-18T19:47:05.733Z,97671.66
2023-05-18T19:49:10.045Z,97677.78
2023-05-18T19:51:12.649Z,97676.88
2023-05-18T19:53:16.762Z,97676.88
2023-05-18T19:55:21.029Z,97683.03
2023-05-18T19:57:23.707Z,97684.81
2023-05-18T19:59:26.852Z,97682.28
2023-05-18T20:01:29.515Z,97684.03
2023-05-18T20:03:32.290Z,97684.91
2023-05-18T20:05:34.979Z,97679.66
2023-05-18T20:07:37.819Z,97679.66
2023-05-18T20:09:41.740Z,97682.22
2023-05-18T20:11:44.765Z,97680.47
2023-05-18T20:13:48.973Z,97689.28
2023-05-18T20:15:51.830Z,97685.81
2023-05-18T20:17:54.542Z,97677.94
2023-05-18T20:19:57.884Z,97680.56
2023-05-18T20:22:00.559Z,97678.88
2023-05-18T20:24:05.286Z,97680.63
2023-05-18T20:26:09.833Z,97688.50
2023-05-18T20:28:13.436Z,97693.75
2023-05-18T20:30:16.134Z,97685.09
2023-05-18T20:32:18.812Z,97689.50
2023-05-18T20:34:21.400Z,97682.53
2023-05-18T20:36:25.964Z,97687.84
2023-05-18T20:38:28.619Z,97677.38
2023-05-18T20:40:31.810Z,97677.44
2023-05-18T20:42:41.326Z,97676.50
2023-05-18T20:44:45.018Z,97683.53
2023-05-18T20:46:47.718Z,97689.63
2023-05-18T20:48:52.392Z,97683.53
2023-05-18T20:50:54.983Z,97680.94
2023-05-18T20:52:57.677Z,97683.53
2023-05-18T20:55:00.715Z,97680.97
2023-05-18T20:57:06.936Z,97680.13
2023-05-18T20:59:12.508Z,97682.75
2023-05-18T21:01:18.982Z,97679.34
2023-05-18T21:03:22.230Z,97675.78
2023-05-18T21:05:24.965Z,97681.03
2023-05-18T21:07:30.420Z,97679.41
2023-05-18T21:09:38.494Z,97680.31
2023-05-18T21:11:41.290Z,97673.31
2023-05-18T21:13:43.887Z,97678.56
2023-05-18T21:15:48.240Z,97674.19
2023-05-18T21:17:50.930Z,97677.69
2023-05-18T21:19:54.136Z,97678.56
2023-05-18T21:21:56.801Z,97669.00
2023-05-18T21:23:59.519Z,97671.63
2023-05-18T21:26:03.592Z,97675.09
2023-05-18T21:28:06.619Z,97672.47
2023-05-18T21:32:30.102Z,97674.31
2023-05-18T21:34:33.188Z,97676.09
2023-05-18T21:36:36.188Z,97676.97
2023-05-18T21:38:40.863Z,97681.41
2023-05-18T21:40:43.975Z,97672.69
2023-05-18T21:42:47.189Z,97674.50
2023-05-18T21:45:07.899Z,97671.88
2023-05-18T21:47:11.004Z,97671.03
2023-05-18T21:49:15.316Z,97675.44
2023-05-18T21:51:18.360Z,97675.50
2023-05-18T21:53:21.398Z,97667.66
2023-05-18T21:55:25.193Z,97672.03
2023-05-18T21:57:27.878Z,97672.97
2023-05-18T21:59:32.413Z,97664.16
2023-05-18T22:01:35.354Z,97670.28
2023-05-18T22:03:39.877Z,97665.94
2023-05-18T22:08:24.074Z,97673.72
2023-05-18T22:10:27.074Z,97671.09
2023-05-18T22:12:30.938Z,97673.66
2023-05-18T22:14:33.886Z,97670.19
2023-05-18T22:18:55.945Z,97668.47
2023-05-18T22:20:59.963Z,97659.78
2023-05-18T22:23:05.620Z,97661.56
2023-05-18T22:25:09.145Z,97661.56
2023-05-18T22:27:12.211Z,97662.41
2023-05-18T22:29:16.172Z,97656.31
2023-05-18T22:31:19.271Z,97653.69
2023-05-18T22:33:21.968Z,97654.63
2023-05-18T22:35:24.914Z,97657.34
2023-05-18T22:37:30.217Z,97658.28
2023-05-18T22:39:33.184Z,97646.94
2023-05-18T22:41:35.874Z,97653.94
2023-05-18T22:43:38.543Z,97653.13
2023-05-18T22:45:42.751Z,97656.63
2023-05-18T22:47:46.228Z,97653.19
2023-05-18T22:49:49.166Z,97659.34
2023-05-18T22:51:53.206Z,97652.31
2023-05-18T22:53:57.696Z,97651.47
2023-05-18T22:56:00.411Z,97648.00
2023-05-18T22:58:03.229Z,97640.13
2023-05-18T23:00:07.827Z,97648.84
2023-05-18T23:02:10.494Z,97644.53
2023-05-18T23:04:18.025Z,97648.06
2023-05-18T23:06:24.097Z,97648.06
2023-05-18T23:08:27.264Z,97641.13
2023-05-18T23:10:37.633Z,97647.31
2023-05-18T23:12:41.566Z,97643.81
2023-05-18T23:14:45.900Z,97642.97
2023-05-18T23:16:50.395Z,97643.91
2023-05-18T23:18:53.738Z,97638.72
2023-05-18T23:20:58.522Z,97649.22
2023-05-18T23:23:01.283Z,97643.09
2023-05-18T23:25:08.317Z,97644.88
2023-05-18T23:27:12.637Z,97639.63
2023-05-18T23:29:15.480Z,97641.38
2023-05-18T23:31:18.103Z,97639.69
2023-05-18T23:33:21.427Z,97644.16
2023-05-18T23:35:25.917Z,97635.44
2023-05-18T23:37:29.842Z,97639.84
2023-05-18T23:39:34.370Z,97642.53
2023-05-18T23:41:39.136Z,97641.72
2023-05-18T23:43:46.104Z,97648.72
2023-05-18T23:45:54.767Z,97647.03
2023-05-18T23:48:03.481Z,97645.31
2023-05-18T23:50:09.751Z,97647.91
2023-05-18T23:52:14.177Z,97645.31
2023-05-18T23:54:17.530Z,97648.00
2023-05-18T23:56:22.057Z,97644.50
2023-05-18T23:58:28.927Z,97648.84
